createdAt,value
2023-03-21T00:00:36.946Z,98491.66
2023-03-21T00:03:03.479Z,98496.00
2023-03-21T00:08:13.057Z,98487.53
2023-03-21T00:10:42.236Z,98486.72
2023-03-21T00:13:21.231Z,98486.78
2023-03-21T00:16:05.878Z,98487.59
2023-03-21T00:19:09.699Z,98491.91
2023-03-21T00:21:59.595Z,98498.75
2023-03-21T00:27:53.355Z,98491.94
2023-03-21T00:30:23.317Z,98497.97
2023-03-21T00:33:05.859Z,98487.75
2023-03-21T00:36:06.186Z,98488.59
2023-03-21T00:38:45.193Z,98492.03
2023-03-21T00:41:25.773Z,98489.47
2023-03-21T00:44:16.277Z,98478.41
2023-03-21T00:49:35.598Z,98475.03
2023-03-21T00:52:18.267Z,98471.66
2023-03-21T00:55:01.544Z,98469.94
2023-03-21T00:57:47.576Z,98461.44
2023-03-21T01:00:23.023Z,98461.44
2023-03-21T01:03:04.265Z,98458.88
2023-03-21T01:06:03.683Z,98460.59
2023-03-21T01:08:44.638Z,98461.53
2023-03-21T01:11:29.923Z,98455.63
2023-03-21T01:14:14.680Z,98449.72
2023-03-21T01:16:45.903Z,98445.56
2023-03-21T01:19:25.013Z,98442.97
2023-03-21T01:22:01.510Z,98440.44
2023-03-21T01:24:28.097Z,98439.63
2023-03-21T01:27:16.367Z,98442.22
2023-03-21T01:29:48.132Z,98432.88
2023-03-21T01:32:17.033Z,98437.25
2023-03-21T01:34:46.284Z,98442.50
2023-03-21T01:37:12.754Z,98441.66
2023-03-21T01:39:39.288Z,98441.66
2023-03-21T01:42:26.366Z,98445.09
2023-03-21T01:45:09.228Z,98440.00
2023-03-21T01:47:52.014Z,98432.41
2023-03-21T01:50:22.306Z,98428.22
2023-03-21T01:53:04.365Z,98429.97
2023-03-21T01:55:49.602Z,98426.63
2023-03-21T01:58:18.683Z,98426.63
2023-03-21T02:00:55.436Z,98422.44
2023-03-21T02:03:35.027Z,98417.34
2023-03-21T02:06:46.676Z,98414.78
2023-03-21T02:09:24.937Z,98419.13
2023-03-21T02:11:55.275Z,98421.72
2023-03-21T02:14:28.966Z,98420.09
2023-03-21T02:17:24.017Z,98416.75
2023-03-21T02:20:15.598Z,98414.25
2023-03-21T02:22:56.001Z,98414.25
2023-03-21T02:25:53.121Z,98413.38
2023-03-21T02:28:28.439Z,98418.47
2023-03-21T02:34:22.758Z,98418.47
2023-03-21T02:37:17.848Z,98414.19
2023-03-21T02:40:09.141Z,98415.03
2023-03-21T02:43:33.371Z,98415.03
2023-03-21T02:46:40.160Z,98420.16
2023-03-21T02:49:27.254Z,98417.63
2023-03-21T02:58:48.416Z,98417.59
2023-03-21T03:01:20.597Z,98417.53
2023-03-21T03:04:47.402Z,98416.72
2023-03-21T03:07:29.085Z,98419.22
2023-03-21T03:10:44.511Z,98413.25
2023-03-21T03:13:21.359Z,98415.78
2023-03-21T03:16:18.614Z,98412.38
2023-03-21T03:19:01.345Z,98414.91
2023-03-21T03:21:27.747Z,98415.72
2023-03-21T03:24:11.552Z,98418.25
2023-03-21T03:26:48.278Z,98413.97
2023-03-21T03:29:17.883Z,98408.81
2023-03-21T03:31:54.935Z,98411.34
2023-03-21T03:34:26.388Z,98407.09
2023-03-21T03:36:57.345Z,98408.72
2023-03-21T03:39:29.904Z,98406.13
2023-03-21T03:42:21.744Z,98406.16
2023-03-21T03:44:54.103Z,98407.03
2023-03-21T03:47:50.806Z,98400.19
2023-03-21T03:50:48.302Z,98400.16
2023-03-21T03:53:35.153Z,98401.81
2023-03-21T03:56:02.798Z,98395.88
2023-03-21T03:58:42.992Z,98401.00
2023-03-21T04:01:11.335Z,98387.31
2023-03-21T04:03:48.835Z,98398.44
2023-03-21T04:06:18.652Z,98399.31
2023-03-21T04:08:45.077Z,98398.47
2023-03-21T04:11:15.967Z,98389.00
2023-03-21T04:13:42.709Z,98383.94
2023-03-21T04:16:11.541Z,98387.38
2023-03-21T04:18:39.245Z,98389.94
2023-03-21T04:21:11.037Z,98390.78
2023-03-21T04:23:37.794Z,98386.53
2023-03-21T04:26:05.546Z,98384.78
2023-03-21T04:28:33.520Z,98379.69
2023-03-21T04:31:05.138Z,98375.44
2023-03-21T04:33:38.429Z,98380.50
2023-03-21T04:36:09.350Z,98384.72
2023-03-21T04:38:36.476Z,98383.03
2023-03-21T04:41:03.767Z,98380.41
2023-03-21T04:43:30.869Z,98377.88
2023-03-21T04:45:57.486Z,98378.78
2023-03-21T04:48:24.675Z,98379.69
2023-03-21T04:50:51.899Z,98384.84
2023-03-21T04:53:18.463Z,98376.34
2023-03-21T04:55:45.225Z,98385.69
2023-03-21T04:58:11.946Z,98378.94
2023-03-21T05:00:39.107Z,98379.78
2023-03-21T05:03:09.095Z,98380.66
2023-03-21T05:05:39.321Z,98378.94
2023-03-21T05:08:06.426Z,98374.69
2023-03-21T05:10:33.307Z,98374.66
2023-03-21T05:12:59.712Z,98377.22
2023-03-21T05:15:26.191Z,98382.31
2023-03-21T05:17:52.665Z,98380.66
2023-03-21T05:20:19.135Z,98384.94
2023-03-21T05:22:46.256Z,98383.28
2023-03-21T05:25:13.220Z,98388.44
2023-03-21T05:27:45.315Z,98379.06
2023-03-21T05:30:17.485Z,98382.50
2023-03-21T05:32:43.928Z,98385.91
2023-03-21T05:35:10.847Z,98384.22
2023-03-21T05:37:38.430Z,98379.94
2023-03-21T05:40:07.042Z,98390.09
2023-03-21T05:42:33.731Z,98390.09
2023-03-21T05:45:00.689Z,98390.91
2023-03-21T05:47:27.332Z,98393.50
2023-03-21T05:49:53.869Z,98394.28
2023-03-21T05:52:20.487Z,98395.09
2023-03-21T05:54:46.964Z,98402.63
2023-03-21T05:57:13.410Z,98403.34
2023-03-21T05:59:39.824Z,98401.66
2023-03-21T06:02:06.296Z,98407.47
2023-03-21T06:04:32.766Z,98403.28
2023-03-21T06:06:59.238Z,98415.09
2023-03-21T06:09:26.495Z,98410.75
2023-03-21T06:11:55.441Z,98408.19
2023-03-21T06:14:22.493Z,98409.94
2023-03-21T06:16:48.939Z,98418.34
2023-03-21T06:19:15.714Z,98419.00
2023-03-21T06:21:42.555Z,98414.44
2023-03-21T06:24:10.137Z,98416.84
2023-03-21T06:26:36.754Z,98412.31
2023-03-21T06:29:03.863Z,98416.19
2023-03-21T06:31:30.732Z,98414.09
2023-03-21T06:33:57.272Z,98414.53
2023-03-21T06:36:23.728Z,98417.59
2023-03-21T06:38:50.143Z,98421.22
2023-03-21T06:41:17.117Z,98420.47
2023-03-21T06:43:44.407Z,98417.47
2023-03-21T06:46:11.400Z,98415.94
2023-03-21T06:48:39.267Z,98418.06
2023-03-21T06:51:06.073Z,98422.06
2023-03-21T06:53:35.690Z,98421.50
2023-03-21T06:56:02.522Z,98416.34
2023-03-21T06:58:29.023Z,98419.50
2023-03-21T07:00:58.985Z,98416.63
2023-03-21T07:03:25.747Z,98416.50
2023-03-21T07:05:52.197Z,98418.09
2023-03-21T07:08:18.649Z,98413.34
2023-03-21T07:10:46.863Z,98414.00
2023-03-21T07:13:13.849Z,98412.31
2023-03-21T07:15:41.351Z,98415.25
2023-03-21T07:18:09.640Z,98416.13
2023-03-21T07:20:37.996Z,98418.25
2023-03-21T07:23:05.017Z,98413.78
2023-03-21T07:25:31.527Z,98411.56
2023-03-21T07:27:58.122Z,98413.53
2023-03-21T07:30:24.664Z,98417.59
2023-03-21T07:32:51.081Z,98414.88
2023-03-21T07:35:18.325Z,98416.50
2023-03-21T07:37:44.812Z,98419.91
2023-03-21T07:40:13.173Z,98429.44
2023-03-21T07:42:41.229Z,98428.19
2023-03-21T07:45:11.068Z,98428.19
2023-03-21T07:47:37.502Z,98419.88
2023-03-21T07:50:04.580Z,98422.13
2023-03-21T07:52:31.345Z,98428.69
2023-03-21T07:54:57.868Z,98432.22
2023-03-21T07:57:24.361Z,98421.88
2023-03-21T07:59:50.875Z,98425.63
2023-03-21T08:02:18.454Z,98427.31
2023-03-21T08:04:45.568Z,98422.47
2023-03-21T08:07:12.520Z,98422.03
2023-03-21T08:09:39.051Z,98431.44
2023-03-21T08:12:08.303Z,98426.97
2023-03-21T08:14:35.895Z,98427.63
2023-03-21T08:17:03.967Z,98427.91
2023-03-21T08:19:31.036Z,98433.31
2023-03-21T08:22:01.214Z,98428.47
2023-03-21T08:24:29.002Z,98439.03
2023-03-21T08:26:55.786Z,98436.25
2023-03-21T08:29:22.940Z,98431.31
2023-03-21T08:31:49.477Z,98431.75
2023-03-21T08:34:17.918Z,98424.88
2023-03-21T08:36:44.325Z,98421.63
2023-03-21T08:39:10.953Z,98420.06
2023-03-21T08:41:38.242Z,98409.03
2023-03-21T08:44:06.690Z,98413.19
2023-03-21T08:46:33.690Z,98411.56
2023-03-21T08:49:00.362Z,98410.91
2023-03-21T08:51:26.964Z,98406.31
2023-03-21T08:53:53.404Z,98407.66
2023-03-21T08:56:19.913Z,98410.06
2023-03-21T08:58:47.350Z,98393.31
2023-03-21T09:01:15.890Z,98393.09
2023-03-21T09:03:43.223Z,98396.06
2023-03-21T09:06:12.144Z,98397.00
2023-03-21T09:08:38.804Z,98393.66
2023-03-21T09:11:05.537Z,98398.94
2023-03-21T09:13:32.025Z,98389.41
2023-03-21T09:16:01.297Z,98399.44
2023-03-21T09:18:47.465Z,98391.28
2023-03-21T09:21:16.173Z,98399.34
2023-03-21T09:23:44.854Z,98392.47
2023-03-21T09:26:12.500Z,98391.03
2023-03-21T09:28:40.491Z,98390.47
2023-03-21T09:31:11.279Z,98391.91
2023-03-21T09:33:40.364Z,98387.84
2023-03-21T09:36:12.843Z,98384.25
2023-03-21T09:38:40.552Z,98370.56
2023-03-21T09:41:21.247Z,98370.41
2023-03-21T09:44:24.577Z,98376.72
2023-03-21T09:47:02.711Z,98375.28
2023-03-21T09:49:34.454Z,98380.91
2023-03-21T09:52:05.533Z,98383.72
2023-03-21T09:54:39.410Z,98382.38
2023-03-21T09:57:19.675Z,98375.13
2023-03-21T09:59:48.309Z,98369.84
2023-03-21T10:02:47.152Z,98365.19
2023-03-21T10:05:19.974Z,98365.06
2023-03-21T10:07:54.396Z,98359.41
2023-03-21T10:10:28.386Z,98355.31
2023-03-21T10:12:56.458Z,98357.06
2023-03-21T10:17:43.171Z,98351.03
2023-03-21T10:18:51.248Z,98356.38
2023-03-21T10:21:47.482Z,98345.25
2023-03-21T10:24:24.956Z,98338.59
2023-03-21T10:26:54.024Z,98338.22
2023-03-21T10:29:27.286Z,98339.38
2023-03-21T10:31:55.616Z,98331.16
2023-03-21T10:34:32.004Z,98326.59
2023-03-21T10:37:01.087Z,98328.38
2023-03-21T10:39:31.576Z,98332.66
2023-03-21T10:41:58.086Z,98326.13
2023-03-21T10:44:38.776Z,98322.34
2023-03-21T10:47:09.820Z,98319.06
2023-03-21T10:49:56.507Z,98323.28
2023-03-21T10:52:28.679Z,98319.56
2023-03-21T10:55:08.685Z,98319.59
2023-03-21T10:57:38.047Z,98306.63
2023-03-21T11:00:17.044Z,98305.91
2023-03-21T11:02:49.649Z,98307.34
2023-03-21T11:05:39.910Z,98308.31
2023-03-21T11:08:12.465Z,98306.63
2023-03-21T11:10:55.755Z,98308.75
2023-03-21T11:13:32.835Z,98303.72
2023-03-21T11:16:07.214Z,98304.25
2023-03-21T11:18:39.079Z,98293.44
2023-03-21T11:21:08.567Z,98292.84
2023-03-21T11:23:43.774Z,98293.31
2023-03-21T11:26:16.664Z,98291.63
2023-03-21T11:28:44.894Z,98286.59
2023-03-21T11:31:11.780Z,98288.00
2023-03-21T11:34:08.227Z,98284.81
2023-03-21T11:36:39.071Z,98282.50
2023-03-21T11:39:11.452Z,98279.63
2023-03-21T11:41:40.732Z,98282.50
2023-03-21T11:44:24.615Z,98271.75
2023-03-21T11:46:52.669Z,98274.78
2023-03-21T11:49:21.197Z,98274.31
2023-03-21T11:51:58.744Z,98270.59
2023-03-21T11:54:43.388Z,98272.16
2023-03-21T11:57:32.141Z,98262.53
2023-03-21T12:00:20.815Z,98253.34
2023-03-21T12:03:06.256Z,98251.81
2023-03-21T12:05:44.494Z,98256.09
2023-03-21T12:08:22.654Z,98252.13
2023-03-21T12:11:03.330Z,98244.13
2023-03-21T12:13:52.955Z,98242.81
2023-03-21T12:16:28.299Z,98239.47
2023-03-21T12:19:12.897Z,98235.88
2023-03-21T12:21:52.838Z,98224.44
2023-03-21T12:24:26.892Z,98216.50
2023-03-21T12:27:28.195Z,98223.81
2023-03-21T12:30:13.709Z,98214.09
2023-03-21T12:33:22.395Z,98198.97
2023-03-21T12:35:54.771Z,98198.91
2023-03-21T12:38:31.724Z,98199.53
2023-03-21T12:41:10.455Z,98201.78
2023-03-21T12:43:47.225Z,98195.59
2023-03-21T12:46:34.211Z,98197.81
2023-03-21T12:49:39.409Z,98192.59
2023-03-21T12:52:08.141Z,98188.41
2023-03-21T12:54:34.518Z,98184.00
2023-03-21T12:57:17.838Z,98175.41
2023-03-21T12:59:59.771Z,98177.78
2023-03-21T13:02:31.351Z,98181.00
2023-03-21T13:05:22.421Z,98173.59
2023-03-21T13:07:53.706Z,98174.66
2023-03-21T13:10:21.694Z,98167.63
2023-03-21T13:13:13.494Z,98162.19
2023-03-21T13:15:48.920Z,98164.41
2023-03-21T13:18:19.492Z,98159.00
2023-03-21T13:20:53.529Z,98150.88
2023-03-21T13:23:22.801Z,98153.75
2023-03-21T13:25:52.438Z,98143.22
2023-03-21T13:28:31.237Z,98145.69
2023-03-21T13:31:16.336Z,98145.84
2023-03-21T13:33:46.501Z,98148.47
2023-03-21T13:36:14.389Z,98145.34
2023-03-21T13:38:41.452Z,98142.66
2023-03-21T13:41:13.266Z,98143.00
2023-03-21T13:44:01.640Z,98139.53
2023-03-21T13:46:28.064Z,98128.56
2023-03-21T13:49:07.962Z,98136.13
2023-03-21T13:51:44.890Z,98124.19
2023-03-21T13:54:14.397Z,98123.63
2023-03-21T13:56:46.948Z,98122.19
2023-03-21T13:59:36.466Z,98119.50
2023-03-21T14:02:12.021Z,98121.06
2023-03-21T14:04:42.715Z,98117.78
2023-03-21T14:07:26.418Z,98109.41
2023-03-21T14:09:58.207Z,98110.28
2023-03-21T14:12:28.977Z,98106.81
2023-03-21T14:15:15.806Z,98110.09
2023-03-21T14:17:53.003Z,98099.72
2023-03-21T14:20:29.309Z,98102.22
2023-03-21T14:22:55.853Z,98103.31
2023-03-21T14:25:29.166Z,98100.44
2023-03-21T14:28:08.003Z,98100.97
2023-03-21T14:30:38.614Z,98101.13
2023-03-21T14:33:17.019Z,98084.91
2023-03-21T14:35:46.594Z,98092.16
2023-03-21T14:38:24.541Z,98088.19
2023-03-21T14:40:54.871Z,98085.59
2023-03-21T14:43:23.305Z,98079.41
2023-03-21T14:45:56.136Z,98078.88
2023-03-21T14:48:31.806Z,98077.56
2023-03-21T14:51:06.409Z,98080.31
2023-03-21T14:53:37.977Z,98080.06
2023-03-21T14:56:16.939Z,98076.72
2023-03-21T14:58:46.270Z,98079.66
2023-03-21T15:01:19.617Z,98079.34
2023-03-21T15:03:46.548Z,98079.41
2023-03-21T15:06:14.139Z,98083.63
2023-03-21T15:08:53.210Z,98069.38
2023-03-21T15:11:33.295Z,98070.19
2023-03-21T15:14:03.432Z,98070.63
2023-03-21T15:16:31.271Z,98069.94
2023-03-21T15:18:59.157Z,98070.28
2023-03-21T15:21:30.345Z,98070.75
2023-03-21T15:24:13.516Z,98058.88
2023-03-21T15:26:40.508Z,98056.28
2023-03-21T15:29:08.753Z,98056.47
2023-03-21T15:31:36.423Z,98060.78
2023-03-21T15:34:04.006Z,98064.16
2023-03-21T15:36:37.783Z,98061.78
2023-03-21T15:39:08.626Z,98063.22
2023-03-21T15:41:35.318Z,98053.00
2023-03-21T15:44:01.730Z,98054.38
2023-03-21T15:46:45.124Z,98061.44
2023-03-21T15:49:14.661Z,98059.66
2023-03-21T15:51:45.673Z,98046.50
2023-03-21T15:54:22.040Z,98052.03
2023-03-21T15:56:54.859Z,98058.13
2023-03-21T15:59:25.248Z,98053.28
2023-03-21T16:01:52.427Z,98059.63
2023-03-21T16:04:18.994Z,98060.88
2023-03-21T16:07:00.108Z,98059.66
2023-03-21T16:09:26.476Z,98062.25
2023-03-21T16:11:55.679Z,98065.56
2023-03-21T16:14:24.547Z,98068.63
2023-03-21T16:16:51.185Z,98067.88
2023-03-21T16:19:20.354Z,98068.44
2023-03-21T16:21:46.847Z,98073.06
2023-03-21T16:24:13.548Z,98074.59
2023-03-21T16:26:46.056Z,98071.63
2023-03-21T16:29:14.573Z,98078.91
2023-03-21T16:31:41.338Z,98079.13
2023-03-21T16:34:08.106Z,98078.75
2023-03-21T16:36:38.857Z,98081.56
2023-03-21T16:39:19.780Z,98084.75
2023-03-21T16:41:46.661Z,98078.09
2023-03-21T16:44:13.206Z,98071.38
2023-03-21T16:46:39.766Z,98076.66
2023-03-21T16:49:17.814Z,98078.16
2023-03-21T16:51:44.249Z,98082.47
2023-03-21T16:54:10.670Z,98093.16
2023-03-21T16:56:44.154Z,98091.75
2023-03-21T16:59:14.801Z,98091.47
2023-03-21T17:01:46.018Z,98093.38
2023-03-21T17:04:12.960Z,98099.69
2023-03-21T17:06:47.746Z,98094.88
2023-03-21T17:09:16.032Z,98098.06
2023-03-21T17:11:42.576Z,98106.06
2023-03-21T17:14:10.888Z,98103.75
2023-03-21T17:16:37.373Z,98115.59
2023-03-21T17:19:10.919Z,98118.38
2023-03-21T17:21:37.320Z,98120.59
2023-03-21T17:24:03.839Z,98118.84
2023-03-21T17:26:30.463Z,98121.78
2023-03-21T17:28:57.263Z,98118.94
2023-03-21T17:31:26.412Z,98121.97
2023-03-21T17:33:53.020Z,98116.41
2023-03-21T17:36:24.417Z,98123.13
2023-03-21T17:38:52.768Z,98122.50
2023-03-21T17:41:20.506Z,98126.03
2023-03-21T17:43:47.384Z,98118.38
2023-03-21T17:46:19.379Z,98131.03
2023-03-21T17:48:46.141Z,98132.03
2023-03-21T17:51:15.914Z,98134.56
2023-03-21T17:53:47.133Z,98129.50
2023-03-21T17:56:21.515Z,98135.88
2023-03-21T17:58:47.909Z,98139.53
2023-03-21T18:01:14.811Z,98140.09
2023-03-21T18:03:41.384Z,98136.03
2023-03-21T18:06:16.093Z,98129.25
2023-03-21T18:08:42.957Z,98127.06
2023-03-21T18:11:12.620Z,98131.53
2023-03-21T18:13:42.182Z,98122.50
2023-03-21T18:16:13.224Z,98120.38
2023-03-21T18:18:59.706Z,98121.13
2023-03-21T18:21:31.291Z,98123.78
2023-03-21T18:23:59.138Z,98123.34
2023-03-21T18:26:26.016Z,98118.34
2023-03-21T18:29:43.956Z,98115.00
2023-03-21T18:31:47.063Z,98117.59
2023-03-21T18:34:18.053Z,98116.06
2023-03-21T18:36:44.733Z,98124.13
2023-03-21T18:39:13.219Z,98126.03
2023-03-21T18:41:40.186Z,98122.56
2023-03-21T18:44:13.517Z,98126.19
2023-03-21T18:46:49.012Z,98129.88
2023-03-21T18:52:03.261Z,98120.59
2023-03-21T18:54:30.209Z,98115.56
2023-03-21T18:57:33.757Z,98121.69
2023-03-21T18:59:44.533Z,98118.28
2023-03-21T19:02:13.856Z,98116.69
2023-03-21T19:04:40.579Z,98116.75
2023-03-21T19:07:08.516Z,98121.19
2023-03-21T19:09:58.141Z,98119.69
2023-03-21T19:12:22.158Z,98124.13
2023-03-21T19:14:48.629Z,98120.09
2023-03-21T19:18:14.441Z,98116.44
2023-03-21T19:20:01.852Z,98107.91
2023-03-21T19:22:29.454Z,98109.69
2023-03-21T19:24:56.271Z,98109.00
2023-03-21T19:27:22.829Z,98107.47
2023-03-21T19:30:06.622Z,98104.84
2023-03-21T19:32:35.875Z,98096.22
2023-03-21T19:35:03.054Z,98091.03
2023-03-21T19:37:29.943Z,98089.44
2023-03-21T19:39:56.769Z,98091.56
2023-03-21T19:42:23.483Z,98099.28
2023-03-21T19:44:50.006Z,98105.28
2023-03-21T19:47:16.416Z,98101.03
2023-03-21T19:50:34.527Z,98100.13
2023-03-21T19:52:29.568Z,98100.84
2023-03-21T19:54:56.388Z,98104.25
2023-03-21T19:57:24.936Z,98112.13
2023-03-21T19:59:54.488Z,98111.88
2023-03-21T20:02:35.167Z,98117.06
2023-03-21T20:05:02.272Z,98119.94
2023-03-21T20:07:32.000Z,98119.94
2023-03-21T20:09:58.825Z,98118.25
2023-03-21T20:12:25.760Z,98119.41
2023-03-21T20:15:01.030Z,98112.56
2023-03-21T20:17:36.020Z,98117.81
2023-03-21T20:20:12.646Z,98121.41
2023-03-21T20:23:05.827Z,98116.94
2023-03-21T20:25:29.578Z,98111.88
2023-03-21T20:28:12.621Z,98111.88
2023-03-21T20:30:48.486Z,98119.75
2023-03-21T20:33:15.015Z,98114.47
2023-03-21T20:38:30.876Z,98129.06
2023-03-21T20:41:02.859Z,98138.88
2023-03-21T20:46:17.463Z,98146.75
2023-03-21T20:48:44.474Z,98154.50
2023-03-21T20:53:58.828Z,98155.38
2023-03-21T20:56:25.266Z,98153.66
2023-03-21T20:59:04.878Z,98158.78
2023-03-21T21:01:38.475Z,98156.09
2023-03-21T21:04:05.788Z,98160.50
2023-03-21T21:06:32.289Z,98159.66
2023-03-21T21:09:00.124Z,98160.59
2023-03-21T21:12:05.150Z,98149.47
2023-03-21T21:16:51.198Z,98152.88
2023-03-21T21:19:18.839Z,98160.34
2023-03-21T21:21:46.080Z,98148.63
2023-03-21T21:24:14.540Z,98144.25
2023-03-21T21:26:46.138Z,98146.16
2023-03-21T21:29:16.934Z,98142.84
2023-03-21T21:31:51.285Z,98146.16
2023-03-21T21:34:19.721Z,98151.31
2023-03-21T21:36:46.589Z,98153.19
2023-03-21T21:39:15.734Z,98145.50
2023-03-21T21:41:43.170Z,98146.41
2023-03-21T21:44:09.655Z,98144.72
2023-03-21T21:46:36.221Z,98137.94
2023-03-21T21:49:02.697Z,98141.38
2023-03-21T21:51:29.136Z,98130.16
2023-03-21T21:53:56.677Z,98134.53
2023-03-21T21:56:24.335Z,98130.44
2023-03-21T21:58:54.211Z,98130.47
2023-03-21T22:01:21.148Z,98126.19
2023-03-21T22:03:48.702Z,98120.22
2023-03-21T22:06:16.021Z,98114.34
2023-03-21T22:08:46.849Z,98115.22
2023-03-21T22:11:18.492Z,98116.91
2023-03-21T22:13:46.645Z,98112.41
2023-03-21T22:16:13.311Z,98105.66
2023-03-21T22:18:40.180Z,98103.09
2023-03-21T22:21:07.112Z,98099.78
2023-03-21T22:23:36.567Z,98104.66
2023-03-21T22:26:06.853Z,98097.03
2023-03-21T22:28:36.674Z,98100.59
2023-03-21T22:31:11.926Z,98101.38
2023-03-21T22:33:38.626Z,98096.88
2023-03-21T22:36:05.873Z,98097.72
2023-03-21T22:38:34.601Z,98102.72
2023-03-21T22:41:02.761Z,98110.19
2023-03-21T22:46:25.960Z,98115.78
2023-03-21T22:48:54.866Z,98106.44
2023-03-21T22:51:21.711Z,98111.69
2023-03-21T22:53:48.245Z,98120.47
2023-03-21T22:56:16.521Z,98115.44
2023-03-21T22:58:43.042Z,98112.94
2023-03-21T23:01:09.629Z,98114.81
2023-03-21T23:03:36.979Z,98116.03
2023-03-21T23:06:04.039Z,98110.31
2023-03-21T23:08:32.150Z,98110.19
2023-03-21T23:10:58.667Z,98109.41
2023-03-21T23:13:26.915Z,98111.41
2023-03-21T23:15:53.617Z,98106.28
2023-03-21T23:18:20.115Z,98106.44
2023-03-21T23:20:49.401Z,98106.50
2023-03-21T23:23:17.849Z,98103.13
2023-03-21T23:25:47.025Z,98099.78
2023-03-21T23:28:15.163Z,98103.47
2023-03-21T23:30:42.066Z,98100.56
2023-03-21T23:33:09.073Z,98099.78
2023-03-21T23:35:40.792Z,98096.50
2023-03-21T23:38:07.377Z,98094.78
2023-03-21T23:40:33.877Z,98096.59
2023-03-21T23:43:00.555Z,98102.50
2023-03-21T23:45:27.153Z,98098.25
2023-03-21T23:47:53.620Z,98102.16
2023-03-21T23:50:20.222Z,98101.47
2023-03-21T23:52:46.688Z,98102.28
2023-03-21T23:55:13.262Z,98098.88
2023-03-21T23:57:41.841Z,98104.09
